Time;durP1;ratioP1;P1;durP2;ratioP2;P2;SDS_P1;SDS_P2;PMS_P1;PMS_P2;Temp;Humidity;BMP_temperature;BMP_pressure;BME280_temperature;BME280_humidity;BME280_pressure;Samples;Min_cycle;Max_cycle;Signal;HPM_P1;HPM_P2
2022/08/01 00:01:30;;;;;;;26.33;15.00;;;;;;;18.34;100.00;101481.66;5053372;28;20471;-67
2022/08/01 00:03:56;;;;;;;27.85;15.27;;;;;;;18.34;100.00;101478.97;5053497;28;20357;-64
2022/08/01 00:06:21;;;;;;;26.95;15.00;;;;;;;18.33;100.00;101487.91;5053813;28;20491;-64
2022/08/01 00:08:46;;;;;;;28.85;15.80;;;;;;;18.34;100.00;101486.13;5053375;28;20032;-64
2022/08/01 00:11:12;;;;;;;27.20;15.55;;;;;;;18.35;100.00;101488.78;5053109;28;20119;-64
2022/08/01 00:13:37;;;;;;;29.40;15.93;;;;;;;18.37;100.00;101489.63;5053739;28;20081;-64
2022/08/01 00:16:03;;;;;;;27.85;15.50;;;;;;;18.35;100.00;101486.13;5053199;28;20104;-64
2022/08/01 00:18:28;;;;;;;27.58;15.10;;;;;;;18.35;100.00;101488.78;5053063;28;20032;-64
2022/08/01 00:20:53;;;;;;;28.55;15.65;;;;;;;18.35;100.00;101488.78;5053373;28;20021;-63
2022/08/01 00:23:19;;;;;;;29.55;16.08;;;;;;;18.33;100.00;101487.03;5049083;28;20119;-64
2022/08/01 00:25:44;;;;;;;29.27;16.13;;;;;;;18.31;100.00;101492.41;5053560;28;20395;-64
2022/08/01 00:28:09;;;;;;;28.77;15.63;;;;;;;18.32;100.00;101490.63;5052999;28;20384;-64
2022/08/01 00:30:36;;;;;;;29.65;16.20;;;;;;;18.29;100.00;101494.25;5053019;28;20075;-64
2022/08/01 00:33:02;;;;;;;31.05;16.48;;;;;;;18.30;100.00;101496.00;5053040;28;20106;-64
2022/08/01 00:35:27;;;;;;;29.52;15.98;;;;;;;18.29;100.00;101494.25;5051675;28;20515;-63
2022/08/01 00:37:53;;;;;;;31.33;16.80;;;;;;;18.28;100.00;101495.16;5052855;28;20111;-64
2022/08/01 00:40:18;;;;;;;29.20;15.88;;;;;;;18.29;100.00;101499.63;5053115;28;20071;-64
2022/08/01 00:42:44;;;;;;;29.73;16.08;;;;;;;18.29;100.00;101494.25;5052821;28;20025;-64
2022/08/01 00:45:11;;;;;;;31.58;17.33;;;;;;;18.19;100.00;101506.00;5052702;28;20021;-64
2022/08/01 00:47:36;;;;;;;30.42;17.55;;;;;;;18.08;100.00;101499.03;5052751;28;20031;-65
2022/08/01 00:50:04;;;;;;;31.92;17.88;;;;;;;18.01;100.00;101500.03;5052823;28;20103;-64
2022/08/01 00:52:29;;;;;;;31.98;18.15;;;;;;;18.02;100.00;101504.50;5052903;28;20075;-64
2022/08/01 00:54:55;;;;;;;31.95;18.38;;;;;;;18.03;100.00;101498.25;5052712;28;20041;-65
2022/08/01 00:57:20;;;;;;;31.77;18.35;;;;;;;18.08;100.00;101504.38;5052615;28;20069;-64
2022/08/01 00:59:46;;;;;;;33.92;18.58;;;;;;;18.09;100.00;101502.63;5052857;28;20025;-65
2022/08/01 01:02:11;;;;;;;32.22;18.58;;;;;;;18.08;100.00;101507.06;5052676;28;20036;-66
2022/08/01 01:04:36;;;;;;;34.33;18.50;;;;;;;18.07;100.00;101509.75;5052342;28;20078;-65
2022/08/01 01:07:04;;;;;;;33.03;19.13;;;;;;;17.99;100.00;101507.22;5052714;28;20399;-65
2022/08/01 01:09:51;;;;;;;33.60;18.55;;;;;;;17.96;100.00;101509.94;5052756;28;20025;-66
2022/08/01 01:12:31;;;;;;;34.70;18.88;;;;;;;17.93;100.00;101501.97;5052743;28;20442;-65
2022/08/01 01:15:42;;;;;;;33.20;19.02;;;;;;;17.89;100.00;101500.22;5049399;28;20029;-64
2022/08/01 01:18:17;;;;;;;35.13;19.77;;;;;;;17.85;100.00;101504.72;5050412;28;20099;-68
2022/08/01 01:20:57;;;;;;;34.45;18.38;;;;;;;17.86;100.00;101511.84;5052892;28;20498;-66
2022/08/01 01:23:37;;;;;;;32.83;18.00;;;;;;;17.81;100.00;101502.13;5055070;28;20111;-65
2022/08/01 01:26:21;;;;;;;34.08;18.40;;;;;;;17.86;100.00;101500.28;5054341;28;20489;-65
2022/08/01 01:29:05;;;;;;;34.50;18.95;;;;;;;17.89;100.00;101500.22;5056906;28;20027;-65
2022/08/01 01:31:36;;;;;;;31.95;18.05;;;;;;;17.90;100.00;101502.91;5053900;28;20110;-65
2022/08/01 01:34:04;;;;;;;33.35;17.95;;;;;;;17.88;100.00;101504.69;5056118;28;20485;-64
2022/08/01 01:36:31;;;;;;;31.60;17.38;;;;;;;17.92;100.00;101494.84;5056253;28;20032;-65
2022/08/01 01:38:57;;;;;;;32.97;18.05;;;;;;;17.87;100.00;101491.34;5056408;28;20048;-66
2022/08/01 01:41:24;;;;;;;32.25;16.80;;;;;;;17.91;100.00;101499.34;5056148;28;20029;-65
2022/08/01 01:43:50;;;;;;;33.40;17.75;;;;;;;17.93;100.00;101499.31;5056100;28;20033;-64
2022/08/01 01:46:19;;;;;;;32.90;17.02;;;;;;;17.96;100.00;101501.94;5056221;28;20502;-68
2022/08/01 01:48:46;;;;;;;30.30;17.05;;;;;;;17.98;100.00;101500.09;5055876;28;20468;-64
2022/08/01 01:51:14;;;;;;;29.95;16.45;;;;;;;17.99;100.00;101501.88;5056167;28;20063;-64
2022/08/01 01:53:41;;;;;;;29.13;15.60;;;;;;;18.02;100.00;101496.47;5056054;28;20056;-64
2022/08/01 01:56:08;;;;;;;28.45;14.75;;;;;;;17.98;100.00;101489.41;5055969;28;20384;-68
2022/08/01 01:58:36;;;;;;;29.50;15.15;;;;;;;17.99;100.00;101496.53;5055751;28;20025;-68
2022/08/01 02:01:03;;;;;;;27.42;14.40;;;;;;;17.95;100.00;101489.44;5055937;28;20062;-67
2022/08/01 02:03:29;;;;;;;27.73;14.95;;;;;;;17.99;100.00;101491.19;5055742;28;20036;-65
2022/08/01 02:05:56;;;;;;;28.00;14.25;;;;;;;17.91;100.00;101487.72;5055699;28;20021;-65
2022/08/01 02:08:24;;;;;;;28.05;14.30;;;;;;;17.95;100.00;101494.81;5052005;28;20036;-65
2022/08/01 02:13:38;;;;;;;27.58;13.25;;;;;;;17.95;100.00;101492.13;5054301;28;20044;-67
2022/08/01 02:16:05;;;;;;;26.33;13.55;;;;;;;17.89;100.00;101495.75;5055816;28;20033;-68
2022/08/01 02:18:31;;;;;;;26.00;12.85;;;;;;;17.91;100.00;101498.44;5055596;28;20033;-64
2022/08/01 02:20:58;;;;;;;27.55;13.30;;;;;;;17.88;100.00;101495.78;5055796;28;20102;-68
2022/08/01 02:23:31;;;;;;;27.08;13.35;;;;;;;17.86;100.00;101494.94;5055438;28;20025;-66
2022/08/01 02:25:57;;;;;;;;;;;;;;;17.90;100.00;101502.03;5052584;28;20104;-65
2022/08/01 02:28:32;;;;;;;25.52;12.32;;;;;;;17.94;100.00;101501.94;5055718;28;19919;-65
2022/08/01 02:31:04;;;;;;;27.02;13.20;;;;;;;17.95;100.00;101494.81;5067733;28;20025;-64
2022/08/01 02:33:41;;;;;;;28.20;13.55;;;;;;;17.96;100.00;101501.06;5054429;28;20245;-65
2022/08/01 02:36:07;;;;;;;27.13;13.43;;;;;;;17.90;100.00;101496.69;5055209;28;20400;-65
2022/08/01 02:38:36;;;;;;;26.15;13.07;;;;;;;17.90;100.00;101505.56;5055626;28;20127;-65
2022/08/01 02:41:08;;;;;;;25.63;12.95;;;;;;;17.87;100.00;101502.06;5055208;28;20021;-65
2022/08/01 02:43:36;;;;;;;27.10;13.32;;;;;;;17.85;100.00;101504.72;5055231;28;20021;-64
2022/08/01 02:46:04;;;;;;;29.10;14.25;;;;;;;17.88;100.00;101498.44;5054956;28;20055;-64
2022/08/01 02:48:33;;;;;;;26.20;14.13;;;;;;;17.90;100.00;101497.56;5055062;28;20067;-64
2022/08/01 02:51:01;;;;;;;27.58;13.88;;;;;;;17.93;100.00;101496.63;5054907;28;20060;-64
2022/08/01 02:53:29;;;;;;;27.80;13.52;;;;;;;17.96;100.00;101501.94;5054858;28;20383;-64
2022/08/01 02:55:56;;;;;;;26.23;13.65;;;;;;;18.02;100.00;101507.16;5054717;28;20045;-64
2022/08/01 02:58:24;;;;;;;27.92;13.90;;;;;;;18.04;100.00;101510.72;5050787;28;20053;-64
2022/08/01 03:00:50;;;;;;;27.83;14.10;;;;;;;18.07;100.00;101507.09;5054968;28;20261;-64
2022/08/01 03:03:16;;;;;;;27.10;13.65;;;;;;;18.09;100.00;101502.63;5054836;28;20464;-64
2022/08/01 03:05:44;;;;;;;27.67;13.73;;;;;;;18.03;100.00;101492.03;5054884;28;20031;-64
2022/08/01 03:08:11;;;;;;;28.95;14.93;;;;;;;17.97;100.00;101498.34;5054530;28;20021;-64
2022/08/01 03:10:39;;;;;;;28.90;13.93;;;;;;;17.96;100.00;101504.59;5054420;28;20521;-63
2022/08/01 03:13:07;;;;;;;27.27;14.30;;;;;;;17.89;100.00;101501.09;5054794;28;20021;-64
2022/08/01 03:15:37;;;;;;;27.77;14.35;;;;;;;17.85;100.00;101491.34;5054610;28;20029;-64
2022/08/01 03:18:05;;;;;;;28.83;14.88;;;;;;;17.84;100.00;101496.72;5054864;28;20025;-65
2022/08/01 03:20:33;;;;;;;29.30;14.88;;;;;;;17.82;100.00;101503.91;5054579;28;20060;-64
2022/08/01 03:23:01;;;;;;;29.05;15.05;;;;;;;17.84;100.00;101504.75;5054270;28;20430;-64
2022/08/01 03:25:28;;;;;;;27.45;14.80;;;;;;;17.87;100.00;101515.41;5054219;28;20036;-65
2022/08/01 03:27:57;;;;;;;27.77;14.48;;;;;;;17.87;100.00;101507.41;5054370;28;20528;-64
2022/08/01 03:30:24;;;;;;;31.48;15.60;;;;;;;17.85;100.00;101509.19;5050265;28;20037;-65
2022/08/01 03:32:50;;;;;;;29.33;15.23;;;;;;;17.86;100.00;101510.97;5054006;28;20021;-64
2022/08/01 03:35:15;;;;;;;30.33;15.48;;;;;;;17.85;100.00;101510.06;5054569;28;20032;-64
2022/08/01 03:37:45;;;;;;;30.42;15.48;;;;;;;17.83;100.00;101516.38;5054214;28;20029;-63
2022/08/01 03:40:19;;;;;;;30.60;15.60;;;;;;;17.81;100.00;101512.81;5054221;28;20020;-64
2022/08/01 03:42:48;;;;;;;31.25;15.70;;;;;;;17.82;100.00;101509.25;5054371;28;20032;-64
2022/08/01 03:45:21;;;;;;;30.77;14.80;;;;;;;17.83;100.00;101511.03;5053663;28;20089;-63
2022/08/01 03:47:48;;;;;;;29.17;15.07;;;;;;;17.78;100.00;101508.44;5054043;28;20040;-64
2022/08/01 03:50:17;;;;;;;30.05;15.70;;;;;;;17.79;100.00;101507.50;5053680;28;20104;-63
2022/08/01 03:52:46;;;;;;;29.33;15.00;;;;;;;17.81;100.00;101504.78;5054092;28;20055;-64
2022/08/01 03:55:14;;;;;;;28.13;14.85;;;;;;;17.78;100.00;101503.94;5053547;28;20048;-66
2022/08/01 03:57:40;;;;;;;29.63;15.43;;;;;;;17.80;100.00;101513.75;5053515;28;20024;-64
2022/08/01 04:00:08;;;;;;;28.98;15.30;;;;;;;17.81;100.00;101507.47;5053742;28;20025;-65
2022/08/01 04:02:34;;;;;;;31.67;15.55;;;;;;;17.80;100.00;101506.59;5052189;28;20040;-64
2022/08/01 04:05:00;;;;;;;31.05;15.90;;;;;;;17.86;100.00;101508.28;5053416;28;20099;-64
2022/08/01 04:07:29;;;;;;;30.42;15.70;;;;;;;17.82;100.00;101514.59;5053628;28;20056;-65
2022/08/01 04:09:54;;;;;;;29.48;14.98;;;;;;;17.79;100.00;101510.16;5049970;28;20059;-64
2022/08/01 04:12:20;;;;;;;29.75;15.25;;;;;;;17.81;100.00;101520.84;5053268;28;20061;-64
2022/08/01 04:14:46;;;;;;;30.50;15.88;;;;;;;17.81;100.00;101520.84;5053466;28;20029;-64
2022/08/01 04:17:11;;;;;;;29.75;15.75;;;;;;;17.81;100.00;101512.81;5053212;28;20028;-67
2022/08/01 04:19:37;;;;;;;28.80;14.55;;;;;;;17.85;100.00;101517.22;5053279;28;20178;-65
2022/08/01 04:22:03;;;;;;;29.38;15.25;;;;;;;17.91;100.00;101526.06;5053541;28;20021;-64
2022/08/01 04:24:32;;;;;;;30.40;14.93;;;;;;;17.90;100.00;101529.66;5053203;28;20025;-64
2022/08/01 04:27:00;;;;;;;28.13;14.68;;;;;;;17.93;100.00;101528.72;5053051;28;20024;-67
2022/08/01 04:29:27;;;;;;;30.02;15.20;;;;;;;17.92;100.00;101525.16;5053342;28;20106;-64
2022/08/01 04:31:54;;;;;;;28.25;14.25;;;;;;;17.92;100.00;101524.28;5049296;28;20033;-65
2022/08/01 04:34:22;;;;;;;29.00;14.50;;;;;;;17.94;100.00;101526.03;5052922;28;20529;-65
2022/08/01 04:36:49;;;;;;;27.80;14.48;;;;;;;17.96;100.00;101526.00;5053410;28;20032;-64
2022/08/01 04:39:17;;;;;;;28.85;14.43;;;;;;;17.99;100.00;101530.44;5052799;28;20021;-64
2022/08/01 04:41:46;;;;;;;28.80;15.02;;;;;;;18.02;100.00;101536.59;5052894;28;20025;-66
2022/08/01 04:44:13;;;;;;;29.65;14.70;;;;;;;18.06;100.00;101530.28;5052959;28;20021;-67
2022/08/01 04:46:39;;;;;;;30.73;15.00;;;;;;;18.15;100.00;101533.75;5052750;28;20044;-64
2022/08/01 04:49:08;;;;;;;29.10;14.25;;;;;;;18.16;100.00;101535.47;5052727;28;20025;-66
2022/08/01 04:51:34;;;;;;;27.90;13.77;;;;;;;18.12;100.00;101540.00;5052719;28;20033;-65
2022/08/01 04:54:00;;;;;;;27.40;13.88;;;;;;;18.01;100.00;101542.84;5052896;28;20045;-67
2022/08/01 04:56:27;;;;;;;29.40;14.93;;;;;;;17.95;100.00;101542.94;5052485;28;20021;-67
2022/08/01 04:59:39;;;;;;;30.98;15.07;;;;;;;17.94;100.00;101541.19;5048188;28;20484;-65
2022/08/01 05:01:37;;;;;;;29.90;15.25;;;;;;;17.89;100.00;101549.22;5052772;28;20090;-67
2022/08/01 05:04:03;;;;;;;28.75;15.63;;;;;;;17.86;100.00;101551.09;5052205;28;20116;-68
2022/08/01 05:06:28;;;;;;;29.45;15.70;;;;;;;17.84;100.00;101544.84;5052428;28;20136;-67
2022/08/01 05:08:53;;;;;;;30.02;15.68;;;;;;;17.93;100.00;101561.69;5052612;28;20017;-67
2022/08/01 05:11:18;;;;;;;30.45;15.95;;;;;;;18.09;100.00;101557.00;5052661;28;20032;-65
2022/08/01 05:13:44;;;;;;;29.40;14.85;;;;;;;18.19;100.00;101556.84;5052479;28;20060;-66
2022/08/01 05:16:09;;;;;;;27.92;14.68;;;;;;;18.26;100.00;101561.19;5052695;28;20048;-65
2022/08/01 05:18:34;;;;;;;27.40;13.52;;;;;;;18.35;100.00;101558.38;5052237;28;20465;-65
2022/08/01 05:21:01;;;;;;;27.60;14.55;;;;;;;18.40;100.00;101567.19;5052379;28;20029;-66
2022/08/01 05:23:27;;;;;;;27.15;13.40;;;;;;;18.42;100.00;101569.84;5052878;28;20051;-65
2022/08/01 05:25:52;;;;;;;27.45;13.15;;;;;;;18.32;100.00;101566.47;5052389;28;20467;-64
2022/08/01 05:28:17;;;;;;;27.23;13.88;;;;;;;18.30;100.00;101562.91;5052300;28;20029;-65
2022/08/01 05:30:43;;;;;;;28.55;13.60;;;;;;;18.19;100.00;101568.44;5052429;28;20353;-65
2022/08/01 05:33:08;;;;;;;27.63;13.43;;;;;;;18.16;100.00;101567.59;5052232;28;20029;-64
2022/08/01 05:35:33;;;;;;;25.55;13.07;;;;;;;18.08;100.00;101573.94;5052308;28;20040;-64
2022/08/01 05:37:58;;;;;;;27.00;12.88;;;;;;;18.11;100.00;101571.25;5052201;28;20021;-64
2022/08/01 05:40:24;;;;;;;27.58;13.32;;;;;;;18.23;100.00;101571.94;5052439;28;20032;-64
2022/08/01 05:42:49;;;;;;;24.67;11.93;;;;;;;18.28;100.00;101562.06;5052346;28;20025;-67
2022/08/01 05:45:14;;;;;;;25.98;12.38;;;;;;;18.41;100.00;101566.28;5052426;28;20071;-63
2022/08/01 05:47:40;;;;;;;24.35;11.10;;;;;;;18.40;100.00;101561.84;5048695;28;20112;-65
2022/08/01 05:50:05;;;;;;;24.50;11.20;;;;;;;18.39;100.00;101567.22;5050496;28;20448;-66
2022/08/01 05:52:31;;;;;;;22.77;10.50;;;;;;;18.31;100.00;101567.34;5049853;28;20090;-66
2022/08/01 05:54:56;;;;;;;24.00;10.35;;;;;;;18.30;100.00;101562.91;5048926;28;20108;-64
2022/08/01 05:57:21;;;;;;;23.10;10.25;;;;;;;18.40;100.00;101567.19;5048311;28;20486;-66
2022/08/01 05:59:47;;;;;;;24.45;10.60;;;;;;;18.47;100.00;101573.34;5050391;28;20024;-66
2022/08/01 06:02:13;;;;;;;22.55;10.50;;;;;;;18.59;100.00;101573.09;5047174;28;20148;-66
2022/08/01 06:04:39;;;;;;;23.10;10.20;;;;;;;18.75;100.00;101575.53;5050349;28;20105;-66
2022/08/01 06:07:04;;;;;;;22.02;9.13;;;;;;;19.02;100.00;101581.31;5050182;28;20894;-66
2022/08/01 06:09:30;;;;;;;22.85;9.57;;;;;;;19.10;100.00;101585.59;5053233;28;20082;-67
2022/08/01 06:11:56;;;;;;;21.30;9.10;;;;;;;19.07;100.00;101577.63;5054249;28;20032;-66
2022/08/01 06:14:21;;;;;;;21.90;9.05;;;;;;;19.01;100.00;101577.75;5053269;28;20029;-66
2022/08/01 06:16:46;;;;;;;21.35;8.52;;;;;;;19.10;100.00;101574.88;5054275;28;20017;-67
2022/08/01 06:19:12;;;;;;;21.65;8.57;;;;;;;19.13;100.00;101571.25;5053264;28;20136;-67
2022/08/01 06:21:37;;;;;;;21.75;8.70;;;;;;;19.24;100.00;101581.78;5053496;28;20025;-65
2022/08/01 06:24:03;;;;;;;20.83;8.80;;;;;;;19.31;100.00;101583.44;5053402;28;20123;-67
2022/08/01 06:26:28;;;;;;;20.55;8.05;;;;;;;19.32;100.00;101585.16;5052285;28;20084;-66
2022/08/01 06:28:53;;;;;;;20.17;8.00;;;;;;;19.20;100.00;101578.28;5053956;28;20032;-66
2022/08/01 06:31:19;;;;;;;20.77;8.00;;;;;;;19.19;100.00;101580.97;5053220;28;20036;-66
2022/08/01 06:33:44;;;;;;;21.10;7.60;;;;;;;19.13;100.00;101588.25;5052759;28;20017;-66
2022/08/01 06:36:10;;;;;;;19.58;7.03;;;;;;;19.12;100.00;101590.94;5052018;28;20464;-66
2022/08/01 06:38:35;;;;;;;19.08;6.70;;;;;;;19.33;100.00;101592.31;5053735;28;20434;-66
2022/08/01 06:41:00;;;;;;;19.40;7.00;;;;;;;19.62;100.00;101598.88;5053658;28;20021;-66
2022/08/01 06:43:26;;;;;;;19.38;6.85;;;;;;;19.88;100.00;101592.06;5053172;28;20021;-66
2022/08/01 06:45:51;;;;;;;18.38;6.50;;;;;;;20.06;100.00;101597.00;5052540;28;20334;-67
2022/08/01 06:48:16;;;;;;;17.17;6.07;;;;;;;20.14;100.00;101594.13;5048396;28;20100;-66
2022/08/01 06:50:42;;;;;;;17.40;6.20;;;;;;;20.05;100.00;101597.03;5050488;28;20471;-66
2022/08/01 06:53:07;;;;;;;18.92;6.15;;;;;;;20.01;100.00;101598.94;5049657;28;20078;-66
2022/08/01 06:55:33;;;;;;;16.90;5.50;;;;;;;19.99;100.00;101598.06;5049589;28;20041;-64
2022/08/01 06:57:58;;;;;;;16.60;5.13;;;;;;;19.93;100.00;101608.94;5053380;28;20123;-65
2022/08/01 07:00:25;;;;;;;15.07;4.80;;;;;;;19.99;100.00;101606.13;5052495;28;20144;-65
2022/08/01 07:02:52;;;;;;;14.57;4.68;;;;;;;19.89;100.00;101605.44;5052247;28;20044;-66
2022/08/01 07:05:18;;;;;;;15.80;4.50;;;;;;;19.89;100.00;101597.38;5053227;28;20028;-66
2022/08/01 07:07:43;;;;;;;13.95;4.60;;;;;;;19.97;100.00;101597.22;5052855;28;20552;-66
2022/08/01 07:10:09;;;;;;;14.18;4.45;;;;;;;20.19;100.00;101605.66;5052711;28;20609;-67
2022/08/01 07:12:37;;;;;;;11.90;3.95;;;;;;;20.47;100.00;101603.16;5052688;28;20025;-64
2022/08/01 07:15:04;;;;;;;13.93;4.00;;;;;;;20.53;100.00;101604.81;5052765;28;20029;-65
2022/08/01 07:17:30;;;;;;;11.68;3.70;;;;;;;20.43;100.00;101605.97;5052911;28;20033;-64
2022/08/01 07:19:55;;;;;;;11.73;3.60;;;;;;;20.57;100.00;101605.66;5052146;28;20360;-64
2022/08/01 07:22:20;;;;;;;13.02;3.85;;;;;;;20.68;100.00;101608.97;5052693;28;20032;-64
2022/08/01 07:24:46;;;;;;;9.35;3.40;;;;;;;20.78;100.00;101614.97;5051767;28;20116;-65
2022/08/01 07:27:12;;;;;;;10.20;3.35;;;;;;;20.98;100.00;101611.75;5052486;28;20060;-65
2022/08/01 07:29:37;;;;;;;8.43;2.90;;;;;;;21.07;100.00;101616.88;5052319;28;20463;-64
2022/08/01 07:32:03;;;;;;;8.05;3.08;;;;;;;21.04;100.00;101615.19;5052301;28;20108;-65
2022/08/01 07:34:28;;;;;;;8.93;3.20;;;;;;;21.16;100.00;101611.25;5051607;28;20135;-65
2022/08/01 07:36:53;;;;;;;8.40;2.90;;;;;;;21.21;100.00;101614.69;5046696;28;20051;-64
2022/08/01 07:39:19;;;;;;;8.68;3.10;;;;;;;21.16;100.00;101618.41;5046419;28;20406;-64
2022/08/01 07:41:44;;;;;;;7.80;3.10;;;;;;;21.09;100.00;101615.03;5045341;28;20025;-66
2022/08/01 07:44:10;;;;;;;12.73;3.00;;;;;;;21.11;100.00;101615.00;5052946;28;20017;-64
2022/08/01 07:46:35;;;;;;;8.40;2.90;;;;;;;21.17;100.00;101625.56;5054095;28;20100;-66
2022/08/01 07:49:01;;;;;;;3.83;2.40;;;;;;;21.13;100.00;101616.72;5053821;28;20067;-66
2022/08/01 07:51:26;;;;;;;7.35;2.72;;;;;;;21.14;100.00;101623.84;5053734;28;20021;-67
2022/08/01 07:53:51;;;;;;;7.82;2.70;;;;;;;21.02;100.00;101624.19;5053958;28;20021;-66
2022/08/01 07:56:17;;;;;;;7.60;2.80;;;;;;;21.12;100.00;101631.09;5053672;28;20029;-64
2022/08/01 07:58:42;;;;;;;7.82;2.90;;;;;;;21.21;100.00;101622.75;5053514;28;20060;-65
2022/08/01 08:01:07;;;;;;;8.05;2.90;;;;;;;21.32;100.00;101621.56;5054011;28;20027;-64
2022/08/01 08:03:33;;;;;;;9.50;2.92;;;;;;;21.45;100.00;101622.09;5053845;28;20057;-65
2022/08/01 08:05:58;;;;;;;10.00;3.30;;;;;;;21.56;100.00;101625.41;5048423;28;20123;-65
2022/08/01 08:08:23;;;;;;;8.75;3.40;;;;;;;21.72;100.00;101626.69;5053986;28;20033;-65
2022/08/01 08:10:49;;;;;;;11.68;3.47;;;;;;;21.90;100.00;101625.28;5053239;28;20028;-64
2022/08/01 08:13:14;;;;;;;12.35;3.70;;;;;;;21.76;100.00;101617.63;5053767;28;20025;-67
2022/08/01 08:15:40;;;;;;;10.07;3.63;;;;;;;21.83;100.00;101629.09;5053343;28;20027;-67
2022/08/01 08:18:06;;;;;;;10.20;3.72;;;;;;;21.80;100.00;101633.66;5052191;28;20112;-67
2022/08/01 08:20:32;;;;;;;7.32;3.13;;;;;;;21.87;100.00;101622.69;5053519;28;20032;-66
2022/08/01 08:22:58;;;;;;;6.18;2.78;;;;;;;22.02;100.00;101634.78;5053255;28;20024;-66
2022/08/01 08:25:24;;;;;;;5.65;2.78;;;;;;;22.20;100.00;101627.06;5053315;28;20155;-65
2022/08/01 08:27:49;;;;;;;6.30;2.70;;;;;;;22.25;100.00;101631.38;5053498;28;20049;-65
2022/08/01 08:30:15;;;;;;;4.25;2.50;;;;;;;22.47;100.00;101630.69;5052937;28;20079;-64
2022/08/01 08:32:41;;;;;;;7.32;2.80;;;;;;;22.79;100.00;101629.59;5053224;28;20424;-65
2022/08/01 08:35:07;;;;;;;6.88;2.67;;;;;;;22.92;100.00;101632.75;5053155;28;20036;-65
2022/08/01 08:37:34;;;;;;;6.28;2.70;;;;;;;23.30;100.00;101629.66;5052894;28;20079;-65
2022/08/01 08:39:59;;;;;;;7.40;2.60;;;;;;;23.96;100.00;101620.91;5052833;28;20029;-65
2022/08/01 08:42:25;;;;;;;3.85;2.40;;;;;;;24.16;100.00;101633.59;5052937;28;20029;-65
2022/08/01 08:44:50;;;;;;;8.65;3.00;;;;;;;24.06;100.00;101635.78;5053088;28;20373;-65
2022/08/01 08:47:17;;;;;;;8.50;2.70;;;;;;;23.57;100.00;101641.22;5052933;28;20021;-65
2022/08/01 08:49:43;;;;;;;6.03;2.65;;;;;;;23.02;100.00;101637.81;5053003;28;20028;-65
2022/08/01 08:52:10;;;;;;;5.68;2.60;;;;;;;22.72;100.00;101625.34;5052904;28;20040;-65
2022/08/01 08:54:37;;;;;;;6.15;2.60;;;;;;;22.54;100.00;101631.34;5052505;28;20399;-65
2022/08/01 08:57:03;;;;;;;4.60;2.30;;;;;;;22.60;100.00;101628.44;5052800;28;20057;-65
2022/08/01 08:59:29;;;;;;;3.35;2.22;;;;;;;22.85;100.00;101636.59;5050113;28;20124;-66
2022/08/01 09:01:55;;;;;;;5.47;2.33;;;;;;;23.05;100.00;101629.63;5050604;28;20113;-65
2022/08/01 09:04:24;;;;;;;5.70;2.42;;;;;;;23.72;100.00;101638.88;5051050;28;20025;-66
2022/08/01 09:06:49;;;;;;;6.85;2.35;;;;;;;24.25;100.00;101635.91;5048336;28;20513;-64
2022/08/01 09:09:15;;;;;;;5.57;2.20;;;;;;;24.63;100.00;101638.88;5050735;28;20115;-65
2022/08/01 09:11:40;;;;;;;5.35;2.20;;;;;;;24.71;100.00;101639.44;5050796;28;20525;-65
2022/08/01 09:14:13;;;;;;;5.57;2.30;;;;;;;24.31;100.00;101643.75;5050942;28;20047;-65
2022/08/01 09:16:44;;;;;;;4.22;2.05;;;;;;;24.05;100.00;101643.94;5050503;28;20544;-65
2022/08/01 09:19:16;;;;;;;3.53;2.05;;;;;;;24.08;100.00;101641.13;5049301;28;20537;-64
2022/08/01 09:21:59;;;;;;;2.45;1.95;;;;;;;24.46;100.00;101646.78;5050701;28;20033;-65
2022/08/01 09:24:27;;;;;;;2.97;1.92;;;;;;;24.50;100.00;101651.13;5048670;28;20044;-65
2022/08/01 09:26:54;;;;;;;4.60;2.00;;;;;;;25.08;100.00;101646.88;5050179;28;20025;-65
2022/08/01 09:29:30;;;;;;;2.97;1.58;;;;;;;25.36;96.76;101654.69;5050691;28;20167;-68
2022/08/01 09:31:56;;;;;;;2.67;1.80;;;;;;;25.27;92.96;101649.69;5050625;28;20497;-66
2022/08/01 09:34:31;;;;;;;5.78;2.00;;;;;;;25.42;94.87;101661.66;5050587;28;20159;-70
2022/08/01 09:37:02;;;;;;;2.45;1.75;;;;;;;25.48;97.50;101658.69;5049681;28;20134;-70
2022/08/01 09:39:30;;;;;;;3.92;1.90;;;;;;;25.39;97.65;101655.44;5050579;28;20032;-69
2022/08/01 09:41:57;;;;;;;2.20;1.80;;;;;;;25.02;98.89;101654.34;5050933;28;20375;-70
2022/08/01 09:44:41;;;;;;;3.40;2.10;;;;;;;25.46;99.16;101660.59;5052990;28;20071;-68
2022/08/01 09:47:07;;;;;;;3.78;1.80;;;;;;;25.81;92.07;101658.94;5053957;28;20025;-70
2022/08/01 09:49:37;;;;;;;3.17;1.80;;;;;;;25.68;90.36;101663.19;5053910;28;20032;-70
2022/08/01 09:52:10;;;;;;;3.47;1.77;;;;;;;26.85;87.14;101653.94;5053588;28;20547;-66
2022/08/01 09:54:35;;;;;;;6.10;1.98;;;;;;;28.29;79.37;101655.22;5054060;28;21081;-69
2022/08/01 09:57:18;;;;;;;2.70;1.80;;;;;;;28.78;78.95;101663.25;5054206;28;20036;-68
2022/08/01 09:59:46;;;;;;;4.78;2.30;;;;;;;28.63;77.68;101675.94;5053422;28;20020;-67
2022/08/01 10:02:15;;;;;;;6.63;2.60;;;;;;;28.73;74.83;101670.78;5055927;28;20483;-69
2022/08/01 10:04:48;;;;;;;5.95;2.35;;;;;;;29.61;73.51;101679.09;5056044;28;20029;-66
2022/08/01 10:07:15;;;;;;;5.22;2.30;;;;;;;31.31;52.49;101658.81;5055880;28;20028;-64
2022/08/01 10:09:42;;;;;;;3.20;2.10;;;;;;;32.21;45.16;101655.97;5055705;28;20598;-64
2022/08/01 10:12:09;;;;;;;4.38;2.30;;;;;;;32.56;41.99;101661.50;5056065;28;20131;-67
2022/08/01 10:14:37;;;;;;;4.97;2.30;;;;;;;33.15;38.96;101654.28;5055661;28;20025;-65
2022/08/01 10:17:03;;;;;;;4.80;2.50;;;;;;;32.60;39.88;101657.56;5051924;28;20024;-64
2022/08/01 10:19:30;;;;;;;5.53;2.72;;;;;;;31.16;42.18;101661.63;5056084;28;20055;-64
2022/08/01 10:21:56;;;;;;;7.32;2.60;;;;;;;29.64;45.86;101668.00;5052032;28;20124;-69
2022/08/01 10:24:23;;;;;;;8.88;2.75;;;;;;;28.65;47.68;101664.94;5050754;28;20456;-69
2022/08/01 10:26:51;;;;;;;5.35;2.40;;;;;;;27.94;51.04;101663.50;5051988;28;20108;-70
2022/08/01 10:29:20;;;;;;;5.93;2.60;;;;;;;27.75;51.81;101663.66;5052404;28;20036;-67
2022/08/01 10:31:46;;;;;;;6.05;2.70;;;;;;;28.82;50.16;101659.38;5051405;28;20043;-70
2022/08/01 10:34:15;;;;;;;7.15;2.60;;;;;;;28.09;51.81;101670.84;5051863;28;20039;-63
2022/08/01 10:36:41;;;;;;;5.30;2.30;;;;;;;29.18;50.39;101674.44;5052493;28;20608;-65
2022/08/01 10:39:10;;;;;;;4.78;2.22;;;;;;;30.61;46.57;101677.22;5053470;28;20035;-68
2022/08/01 10:41:36;;;;;;;6.72;2.40;;;;;;;31.31;44.00;101680.66;5053763;28;20100;-70
2022/08/01 10:44:02;;;;;;;5.63;2.40;;;;;;;31.94;42.67;101676.16;5049431;28;20086;-63
2022/08/01 10:46:30;;;;;;;4.82;2.30;;;;;;;32.51;41.40;101682.88;5052953;28;20048;-68
2022/08/01 10:49:06;;;;;;;7.47;2.17;;;;;;;33.31;40.68;101673.16;5053279;28;20109;-67
2022/08/01 10:51:37;;;;;;;6.68;2.30;;;;;;;33.46;38.51;101671.03;5053602;28;20035;-67
2022/08/01 10:54:05;;;;;;;4.43;2.20;;;;;;;33.28;39.20;101674.25;5051421;28;20092;-69
2022/08/01 10:56:49;;;;;;;2.92;1.95;;;;;;;33.61;39.22;101685.38;5050169;28;20032;-70
2022/08/01 10:59:26;;;;;;;2.22;1.90;;;;;;;34.08;38.94;101688.88;5052752;28;20079;-64
2022/08/01 11:01:59;;;;;;;4.05;2.00;;;;;;;33.57;38.38;101689.34;5053517;28;20063;-70
2022/08/01 11:04:55;;;;;;;6.55;2.20;;;;;;;33.53;39.92;101691.47;5052646;28;20537;-70
2022/08/01 11:07:32;;;;;;;6.00;2.30;;;;;;;33.71;37.75;101690.00;5052661;28;20029;-72
2022/08/01 11:10:16;;;;;;;3.35;2.10;;;;;;;34.85;36.80;101689.81;5052319;28;20033;-69
2022/08/01 11:12:42;;;;;;;5.57;2.40;;;;;;;34.90;34.05;101698.53;5052284;28;20052;-69
2022/08/01 11:15:10;;;;;;;5.43;2.10;;;;;;;33.53;36.97;101699.69;5052675;28;20033;-68